createdAt,value
2023-03-27T00:00:16.738Z,4.20
2023-03-27T00:02:46.982Z,4.10
2023-03-27T00:05:16.256Z,4.10
2023-03-27T00:07:45.801Z,4.20
2023-03-27T00:10:13.947Z,4.20
2023-03-27T00:12:44.229Z,4.20
2023-03-27T00:15:17.221Z,4.20
2023-03-27T00:17:49.886Z,4.10
2023-03-27T00:20:21.811Z,4.20
2023-03-27T00:22:55.491Z,4.30
2023-03-27T00:25:24.956Z,4.40
2023-03-27T00:27:54.056Z,4.40
2023-03-27T00:30:22.268Z,4.40
2023-03-27T00:32:52.041Z,4.50
2023-03-27T00:35:20.231Z,4.50
2023-03-27T00:37:48.512Z,4.60
2023-03-27T00:40:18.755Z,4.60
2023-03-27T00:42:48.160Z,4.70
2023-03-27T00:45:18.926Z,4.70
2023-03-27T00:47:50.025Z,4.70
2023-03-27T00:50:21.505Z,4.70
2023-03-27T00:52:54.719Z,4.70
2023-03-27T00:55:24.964Z,4.60
2023-03-27T00:57:58.318Z,4.60
2023-03-27T01:00:27.255Z,4.60
2023-03-27T01:02:56.271Z,4.50
2023-03-27T01:05:29.473Z,4.50
2023-03-27T01:08:00.562Z,4.50
2023-03-27T01:10:42.025Z,4.40
2023-03-27T01:13:21.917Z,4.40
2023-03-27T01:15:59.462Z,4.40
2023-03-27T01:18:40.591Z,4.30
2023-03-27T01:21:48.804Z,4.30
2023-03-27T01:24:46.245Z,4.30
2023-03-27T01:27:21.114Z,4.20
2023-03-27T01:30:07.862Z,4.20
2023-03-27T01:33:10.143Z,4.10
2023-03-27T01:36:14.582Z,4.10
2023-03-27T01:39:09.113Z,4.10
2023-03-27T01:41:43.578Z,4.00
2023-03-27T01:44:17.207Z,4.00
2023-03-27T01:46:51.193Z,4.00
2023-03-27T01:49:22.141Z,4.00
2023-03-27T01:51:55.535Z,4.10
2023-03-27T01:54:27.967Z,4.10
2023-03-27T01:57:04.340Z,4.10
2023-03-27T01:59:37.544Z,4.10
2023-03-27T02:02:11.411Z,4.10
2023-03-27T02:04:44.375Z,4.00
2023-03-27T02:07:18.796Z,4.00
2023-03-27T02:09:51.875Z,4.00
2023-03-27T02:12:23.115Z,3.90
2023-03-27T02:14:55.186Z,3.90
2023-03-27T02:17:26.472Z,3.80
2023-03-27T02:19:59.294Z,3.80
2023-03-27T02:22:37.552Z,3.80
2023-03-27T02:25:29.342Z,3.70
2023-03-27T02:28:24.588Z,3.70
2023-03-27T02:31:31.908Z,3.60
2023-03-27T02:34:02.896Z,3.60
2023-03-27T02:36:41.573Z,3.60
2023-03-27T02:39:16.575Z,3.50
2023-03-27T02:41:51.867Z,3.50
2023-03-27T02:44:27.080Z,3.40
2023-03-27T02:47:00.838Z,3.40
2023-03-27T02:49:32.560Z,3.30
2023-03-27T02:52:04.733Z,3.30
2023-03-27T02:54:37.283Z,3.20
2023-03-27T02:57:11.779Z,3.20
2023-03-27T02:59:45.419Z,3.10
2023-03-27T03:02:18.001Z,3.10
2023-03-27T03:04:49.710Z,3.00
2023-03-27T03:07:18.614Z,3.00
2023-03-27T03:09:47.089Z,2.90
2023-03-27T03:12:16.758Z,2.90
2023-03-27T03:14:45.384Z,2.90
2023-03-27T03:17:15.054Z,2.80
2023-03-27T03:19:43.222Z,2.90
2023-03-27T03:22:11.796Z,2.80
2023-03-27T03:24:42.380Z,2.80
2023-03-27T03:27:10.880Z,2.70
2023-03-27T03:29:40.332Z,2.70
2023-03-27T03:32:08.888Z,2.70
2023-03-27T03:34:37.070Z,2.70
2023-03-27T03:37:05.500Z,2.70
2023-03-27T03:39:33.626Z,2.60
2023-03-27T03:42:01.744Z,2.60
2023-03-27T03:44:30.049Z,2.60
2023-03-27T03:46:59.576Z,2.60
2023-03-27T03:49:28.124Z,2.60
2023-03-27T03:52:03.497Z,2.60
2023-03-27T03:54:32.951Z,2.50
2023-03-27T03:57:01.191Z,2.50
2023-03-27T03:59:30.102Z,2.50
2023-03-27T04:02:00.569Z,2.50
2023-03-27T04:04:28.916Z,2.50
2023-03-27T04:06:58.433Z,2.40
2023-03-27T04:09:26.631Z,2.40
2023-03-27T04:11:54.759Z,2.40
2023-03-27T04:14:22.858Z,2.40
2023-03-27T04:16:51.086Z,2.30
2023-03-27T04:19:20.631Z,2.30
2023-03-27T04:21:48.892Z,2.30
2023-03-27T04:24:18.323Z,2.30
2023-03-27T04:26:46.660Z,2.30
2023-03-27T04:29:14.738Z,2.30
2023-03-27T04:31:46.566Z,2.30
2023-03-27T04:34:14.936Z,2.30
2023-03-27T04:36:44.698Z,2.30
2023-03-27T04:39:12.856Z,2.30
2023-03-27T04:41:41.146Z,2.30
2023-03-27T04:44:09.803Z,2.30
2023-03-27T04:46:38.279Z,2.20
2023-03-27T04:49:06.600Z,2.20
2023-03-27T04:51:35.297Z,2.10
2023-03-27T04:54:05.724Z,2.20
2023-03-27T04:56:35.191Z,2.20
2023-03-27T04:59:04.725Z,2.20
2023-03-27T05:01:33.990Z,2.10
2023-03-27T05:04:02.557Z,2.10
2023-03-27T05:06:32.922Z,2.10
2023-03-27T05:09:01.648Z,2.10
2023-03-27T05:11:31.660Z,2.10
2023-03-27T05:13:59.837Z,2.10
2023-03-27T05:16:28.273Z,2.10
2023-03-27T05:18:56.409Z,2.10
2023-03-27T05:21:24.753Z,2.20
2023-03-27T05:23:53.360Z,2.20
2023-03-27T05:26:22.296Z,2.20
2023-03-27T05:28:52.659Z,2.20
2023-03-27T05:31:22.300Z,2.20
2023-03-27T05:33:52.566Z,2.30
2023-03-27T05:36:22.105Z,2.20
2023-03-27T05:38:50.588Z,2.30
2023-03-27T05:41:19.450Z,2.30
2023-03-27T05:43:50.111Z,2.30
2023-03-27T05:46:21.562Z,2.40
2023-03-27T05:48:50.934Z,2.40
2023-03-27T05:51:19.093Z,2.50
2023-03-27T05:53:47.282Z,2.50
2023-03-27T05:56:15.566Z,2.50
2023-03-27T05:58:43.739Z,2.50
2023-03-27T06:01:14.008Z,2.50
2023-03-27T06:03:43.656Z,2.50
2023-03-27T06:06:13.670Z,2.50
2023-03-27T06:08:42.208Z,2.50
2023-03-27T06:11:11.355Z,2.50
2023-03-27T06:13:39.599Z,2.60
2023-03-27T06:16:09.158Z,2.60
2023-03-27T06:18:37.665Z,2.60
2023-03-27T06:21:08.116Z,2.60
2023-03-27T06:23:36.359Z,2.60
2023-03-27T06:26:04.870Z,2.60
2023-03-27T06:28:33.118Z,2.70
2023-03-27T06:31:01.721Z,2.80
2023-03-27T06:33:30.919Z,2.80
2023-03-27T06:36:00.825Z,2.90
2023-03-27T06:38:32.948Z,3.00
2023-03-27T06:41:01.292Z,3.00
2023-03-27T06:43:29.581Z,3.10
2023-03-27T06:45:58.270Z,3.20
2023-03-27T06:48:26.616Z,3.40
2023-03-27T06:50:55.823Z,3.50
2023-03-27T06:53:27.983Z,3.70
2023-03-27T06:55:58.978Z,3.80
2023-03-27T06:58:27.598Z,4.00
2023-03-27T07:00:56.076Z,4.20
2023-03-27T07:03:25.742Z,4.50
2023-03-27T07:05:53.984Z,4.70
2023-03-27T07:08:24.957Z,5.20
2023-03-27T07:13:27.399Z,5.70
2023-03-27T07:15:55.888Z,6.00
2023-03-27T07:18:24.268Z,6.10
2023-03-27T07:20:52.426Z,6.10
2023-03-27T07:23:20.686Z,6.00
2023-03-27T07:25:50.242Z,6.10
2023-03-27T07:28:19.526Z,6.10
2023-03-27T07:30:49.296Z,6.20
2023-03-27T07:33:17.560Z,6.30
2023-03-27T07:35:47.341Z,6.20
2023-03-27T07:38:16.769Z,6.30
2023-03-27T07:40:46.217Z,6.40
2023-03-27T07:43:14.804Z,6.40
2023-03-27T07:45:43.248Z,6.40
2023-03-27T07:48:16.261Z,6.60
2023-03-27T07:50:45.033Z,6.70
2023-03-27T07:53:32.987Z,6.80
2023-03-27T07:56:02.364Z,6.90
2023-03-27T07:58:30.573Z,6.90
2023-03-27T08:01:02.287Z,7.00
2023-03-27T08:03:32.716Z,7.10
2023-03-27T08:06:01.844Z,7.10
2023-03-27T08:08:30.130Z,7.20
2023-03-27T08:10:59.304Z,7.00
2023-03-27T08:13:27.840Z,7.00
2023-03-27T08:16:04.354Z,7.10
2023-03-27T08:18:34.289Z,7.30
2023-03-27T08:21:03.198Z,7.00
2023-03-27T08:23:32.727Z,7.30
2023-03-27T08:26:01.631Z,7.70
2023-03-27T08:28:30.258Z,7.80
2023-03-27T08:31:02.594Z,8.00
2023-03-27T08:33:32.895Z,8.20
2023-03-27T08:36:00.951Z,8.50
2023-03-27T08:38:33.292Z,8.30
2023-03-27T08:41:03.834Z,7.70
2023-03-27T08:43:37.346Z,7.70
2023-03-27T08:46:09.837Z,7.70
2023-03-27T08:48:45.067Z,8.20
2023-03-27T08:51:18.538Z,8.60
2023-03-27T08:53:53.258Z,8.80
2023-03-27T08:56:22.287Z,9.20
2023-03-27T08:58:50.466Z,9.10
2023-03-27T09:01:26.313Z,9.10
2023-03-27T09:04:05.078Z,9.00
2023-03-27T09:06:41.357Z,9.10
2023-03-27T09:09:14.567Z,8.60
2023-03-27T09:11:54.004Z,8.10
2023-03-27T09:14:31.067Z,8.40
2023-03-27T09:17:06.108Z,8.40
2023-03-27T09:19:44.481Z,8.80
2023-03-27T09:22:17.315Z,8.90
2023-03-27T09:24:48.956Z,9.20
2023-03-27T09:27:21.944Z,9.40
2023-03-27T09:30:06.070Z,8.70
2023-03-27T09:32:35.884Z,8.50
2023-03-27T09:35:06.358Z,9.00
2023-03-27T09:37:36.882Z,9.20
2023-03-27T09:40:07.457Z,9.40
2023-03-27T09:42:40.507Z,9.30
2023-03-27T09:45:12.882Z,9.30
2023-03-27T09:47:46.634Z,9.60
2023-03-27T09:50:27.786Z,9.60
2023-03-27T09:53:08.289Z,8.60
2023-03-27T09:55:43.884Z,8.00
2023-03-27T09:58:15.930Z,7.70
2023-03-27T10:00:44.115Z,7.30
2023-03-27T10:03:17.666Z,7.20
2023-03-27T10:05:47.974Z,7.00
2023-03-27T10:08:33.500Z,6.70
2023-03-27T10:11:07.941Z,6.60
2023-03-27T10:13:36.570Z,6.60
2023-03-27T10:16:07.032Z,6.60
2023-03-27T10:18:42.221Z,6.50
2023-03-27T10:21:17.716Z,6.70
2023-03-27T10:23:49.392Z,7.30
2023-03-27T10:26:20.445Z,7.30
2023-03-27T10:28:51.565Z,7.70
2023-03-27T10:31:29.678Z,8.00
2023-03-27T10:33:58.536Z,8.20
2023-03-27T10:36:28.423Z,8.30
2023-03-27T10:39:02.106Z,8.60
2023-03-27T10:41:32.592Z,8.70
2023-03-27T10:44:01.810Z,9.00
2023-03-27T10:46:31.983Z,9.10
2023-03-27T10:49:08.914Z,9.20
2023-03-27T10:51:47.606Z,9.60
2023-03-27T10:54:25.825Z,9.70
2023-03-27T10:56:59.855Z,9.90
2023-03-27T10:59:41.537Z,10.00
2023-03-27T11:02:18.017Z,10.20
2023-03-27T11:04:52.412Z,10.40
2023-03-27T11:07:29.314Z,10.80
2023-03-27T11:10:03.762Z,11.10
2023-03-27T11:12:36.654Z,10.40
2023-03-27T11:15:14.686Z,9.80
2023-03-27T11:17:47.524Z,9.40
2023-03-27T11:20:21.472Z,9.90
2023-03-27T11:22:55.868Z,10.60
2023-03-27T11:25:33.883Z,10.90
2023-03-27T11:28:09.694Z,10.70
2023-03-27T11:30:44.333Z,10.10
2023-03-27T11:33:33.483Z,9.80
2023-03-27T11:36:10.202Z,9.60
2023-03-27T11:38:44.968Z,9.60
2023-03-27T11:41:15.611Z,9.40
2023-03-27T11:43:44.283Z,10.00
2023-03-27T11:46:29.575Z,10.70
2023-03-27T11:49:23.078Z,11.00
2023-03-27T11:52:02.733Z,10.40
2023-03-27T11:54:45.012Z,10.30
2023-03-27T11:57:20.004Z,10.50
2023-03-27T12:00:11.187Z,10.70
2023-03-27T12:02:58.385Z,11.20
2023-03-27T12:05:38.295Z,11.70
2023-03-27T12:08:12.599Z,11.30
2023-03-27T12:10:43.479Z,11.00
2023-03-27T12:13:44.983Z,10.30
2023-03-27T12:16:40.229Z,10.10
2023-03-27T12:19:29.734Z,10.60
2023-03-27T12:22:21.024Z,11.10
2023-03-27T12:25:06.147Z,11.70
2023-03-27T12:27:48.423Z,11.60
2023-03-27T12:30:33.395Z,12.00
2023-03-27T12:33:24.132Z,12.10
2023-03-27T12:35:55.846Z,12.10
2023-03-27T12:38:29.966Z,11.20
2023-03-27T12:41:05.375Z,10.80
2023-03-27T12:43:39.842Z,9.80
2023-03-27T12:46:15.169Z,9.10
2023-03-27T12:48:58.084Z,8.50
2023-03-27T12:51:43.216Z,7.90
2023-03-27T12:54:23.120Z,7.60
2023-03-27T12:56:53.153Z,7.40
2023-03-27T12:59:27.196Z,7.60
2023-03-27T13:02:29.099Z,7.60
2023-03-27T13:05:26.939Z,8.40
2023-03-27T13:08:10.335Z,9.10
2023-03-27T13:10:54.658Z,9.40
2023-03-27T13:13:59.555Z,9.70
2023-03-27T13:16:47.129Z,10.00
2023-03-27T13:19:27.923Z,10.50
2023-03-27T13:22:23.591Z,10.70
2023-03-27T13:25:14.726Z,11.10
2023-03-27T13:27:52.859Z,11.20
2023-03-27T13:30:41.822Z,11.30
2023-03-27T13:33:16.192Z,11.40
2023-03-27T13:35:59.904Z,11.60
2023-03-27T13:38:51.862Z,11.50
2023-03-27T13:42:00.334Z,10.60
2023-03-27T13:44:40.770Z,9.80
2023-03-27T13:47:28.578Z,9.10
2023-03-27T13:50:14.274Z,8.90
2023-03-27T13:53:40.390Z,9.30
2023-03-27T13:56:37.218Z,10.20
2023-03-27T13:59:44.727Z,10.50
2023-03-27T14:02:41.309Z,11.00
2023-03-27T14:05:32.698Z,10.60
2023-03-27T14:08:20.055Z,10.60
2023-03-27T14:11:09.093Z,10.70
2023-03-27T14:13:54.345Z,10.80
2023-03-27T14:16:47.349Z,11.00
2023-03-27T14:19:29.776Z,11.00
2023-03-27T14:22:03.580Z,10.70
2023-03-27T14:24:37.288Z,10.50
2023-03-27T14:27:07.511Z,10.40
2023-03-27T14:29:35.870Z,10.70
2023-03-27T14:32:05.862Z,10.50
2023-03-27T14:34:43.868Z,9.90
2023-03-27T14:37:30.078Z,8.80
2023-03-27T14:40:00.588Z,7.60
2023-03-27T14:42:32.831Z,7.50
2023-03-27T14:45:17.999Z,7.20
2023-03-27T14:47:50.263Z,6.80
2023-03-27T14:50:19.169Z,6.50
2023-03-27T14:52:53.380Z,6.50
2023-03-27T14:55:23.518Z,6.40
2023-03-27T14:57:56.426Z,6.50
2023-03-27T15:00:26.832Z,6.40
2023-03-27T15:02:57.256Z,6.30
2023-03-27T15:05:25.545Z,6.30
2023-03-27T15:07:55.619Z,6.30
2023-03-27T15:10:26.256Z,6.20
2023-03-27T15:12:56.444Z,6.40
2023-03-27T15:15:31.345Z,6.60
2023-03-27T15:18:05.016Z,6.80
2023-03-27T15:20:37.260Z,6.90
2023-03-27T15:23:17.141Z,7.10
2023-03-27T15:25:55.919Z,7.30
2023-03-27T15:28:30.474Z,7.50
2023-03-27T15:31:01.743Z,7.50
2023-03-27T15:33:34.403Z,7.30
2023-03-27T15:36:06.131Z,7.30
2023-03-27T15:38:37.674Z,7.40
2023-03-27T15:41:37.415Z,7.40
2023-03-27T15:44:07.299Z,7.40
2023-03-27T15:46:46.475Z,7.30
2023-03-27T15:49:26.109Z,7.30
2023-03-27T15:51:55.039Z,7.20
2023-03-27T15:54:35.214Z,7.20
2023-03-27T15:57:09.599Z,7.00
2023-03-27T15:59:51.818Z,7.00
2023-03-27T16:02:24.891Z,7.00
2023-03-27T16:04:55.496Z,7.20
2023-03-27T16:07:27.348Z,7.20
2023-03-27T16:09:59.820Z,7.30
2023-03-27T16:12:32.460Z,7.40
2023-03-27T16:15:04.315Z,7.50
2023-03-27T16:17:41.149Z,7.50
2023-03-27T16:20:34.778Z,7.60
2023-03-27T16:23:04.177Z,7.70
2023-03-27T16:25:34.022Z,7.80
2023-03-27T16:28:02.523Z,7.90
2023-03-27T16:30:34.421Z,7.80
2023-03-27T16:33:03.392Z,7.80
2023-03-27T16:35:32.614Z,7.60
2023-03-27T16:38:01.425Z,7.60
2023-03-27T16:40:29.588Z,7.40
2023-03-27T16:42:59.089Z,7.30
2023-03-27T16:45:27.343Z,7.20
2023-03-27T16:47:55.887Z,7.20
2023-03-27T16:50:29.065Z,7.10
2023-03-27T16:52:57.253Z,7.10
2023-03-27T16:55:25.598Z,7.00
2023-03-27T16:57:55.045Z,6.90
2023-03-27T17:00:26.705Z,6.90
2023-03-27T17:02:54.869Z,6.80
2023-03-27T17:05:23.170Z,6.70
2023-03-27T17:07:51.337Z,6.60
2023-03-27T17:10:19.721Z,6.60
2023-03-27T17:12:47.780Z,6.60
2023-03-27T17:15:16.729Z,6.50
2023-03-27T17:17:46.730Z,6.50
2023-03-27T17:20:15.413Z,6.40
2023-03-27T17:22:44.729Z,6.30
2023-03-27T17:25:13.268Z,6.30
2023-03-27T17:27:41.444Z,6.30
2023-03-27T17:30:11.982Z,6.20
2023-03-27T17:32:40.088Z,6.20
2023-03-27T17:35:10.759Z,6.20
2023-03-27T17:37:39.054Z,6.20
2023-03-27T17:40:09.892Z,6.20
2023-03-27T17:42:38.509Z,6.10
2023-03-27T17:45:07.583Z,6.10
2023-03-27T17:47:36.020Z,6.10
2023-03-27T17:50:04.590Z,6.10
2023-03-27T17:52:34.929Z,6.00
2023-03-27T17:55:03.140Z,5.90
2023-03-27T17:57:33.103Z,5.90
2023-03-27T18:00:01.445Z,5.80
2023-03-27T18:02:29.698Z,5.80
2023-03-27T18:04:58.066Z,5.70
2023-03-27T18:07:26.234Z,5.60
2023-03-27T18:09:55.786Z,5.50
2023-03-27T18:12:24.103Z,5.50
2023-03-27T18:14:52.438Z,5.40
2023-03-27T18:17:21.252Z,5.30
2023-03-27T18:19:49.546Z,5.20
2023-03-27T18:22:17.768Z,5.20
2023-03-27T18:24:46.026Z,5.20
2023-03-27T18:27:16.473Z,5.10
2023-03-27T18:29:44.764Z,5.00
2023-03-27T18:32:12.974Z,5.00
2023-03-27T18:34:41.388Z,4.90
2023-03-27T18:37:09.502Z,4.80
2023-03-27T18:39:37.947Z,4.80
2023-03-27T18:42:06.862Z,4.70
2023-03-27T18:44:38.017Z,4.70
2023-03-27T18:47:06.361Z,4.60
2023-03-27T18:49:34.535Z,4.60
2023-03-27T18:52:02.989Z,4.50
2023-03-27T18:54:31.183Z,4.50
2023-03-27T18:56:59.419Z,4.40
2023-03-27T18:59:27.628Z,4.40
2023-03-27T19:01:57.461Z,4.30
2023-03-27T19:04:26.126Z,4.30
2023-03-27T19:06:54.242Z,4.30
2023-03-27T19:09:28.207Z,4.20
2023-03-27T19:12:07.270Z,4.20
2023-03-27T19:14:35.555Z,4.10
2023-03-27T19:17:05.270Z,4.10
2023-03-27T19:19:33.651Z,4.00
2023-03-27T19:22:01.782Z,4.00
2023-03-27T19:24:30.033Z,3.90
2023-03-27T19:26:58.262Z,3.90
2023-03-27T19:29:29.586Z,3.90
2023-03-27T19:31:57.752Z,3.80
2023-03-27T19:34:40.018Z,3.80
2023-03-27T19:37:11.001Z,3.70
2023-03-27T19:39:39.250Z,3.70
2023-03-27T19:42:07.482Z,3.60
2023-03-27T19:44:35.639Z,3.60
2023-03-27T19:47:03.943Z,3.50
2023-03-27T19:49:33.802Z,3.40
2023-03-27T19:52:01.720Z,3.50
2023-03-27T19:54:31.221Z,3.40
2023-03-27T19:56:59.655Z,3.40
2023-03-27T19:59:30.929Z,3.40
2023-03-27T20:01:59.444Z,3.30
2023-03-27T20:04:27.582Z,3.30
2023-03-27T20:06:58.977Z,3.30
2023-03-27T20:09:27.270Z,3.20
2023-03-27T20:11:58.138Z,3.10
2023-03-27T20:14:26.379Z,3.20
2023-03-27T20:16:54.378Z,3.10
2023-03-27T20:19:27.811Z,3.10
2023-03-27T20:21:59.368Z,3.00
2023-03-27T20:24:28.909Z,3.00
2023-03-27T20:26:58.303Z,3.00
2023-03-27T20:29:28.385Z,3.00
2023-03-27T20:31:56.453Z,3.00
2023-03-27T20:34:24.758Z,2.90
2023-03-27T20:36:54.966Z,2.90
2023-03-27T20:39:24.434Z,2.90
2023-03-27T20:41:53.111Z,2.90
2023-03-27T20:44:21.220Z,2.90
2023-03-27T20:46:51.326Z,2.90
2023-03-27T20:51:57.183Z,2.90
2023-03-27T20:54:27.355Z,2.80
2023-03-27T20:56:55.895Z,2.80
2023-03-27T20:59:24.037Z,2.70
2023-03-27T21:01:52.244Z,2.70
2023-03-27T21:04:21.544Z,2.60
2023-03-27T21:06:49.790Z,2.60
2023-03-27T21:09:17.995Z,2.60
2023-03-27T21:11:47.507Z,2.60
2023-03-27T21:14:15.783Z,2.60
2023-03-27T21:16:44.320Z,2.60
2023-03-27T21:19:12.680Z,2.60
2023-03-27T21:21:40.934Z,2.60
2023-03-27T21:24:09.216Z,2.50
2023-03-27T21:26:37.344Z,2.50
2023-03-27T21:29:10.596Z,2.50
2023-03-27T21:31:38.966Z,2.50
2023-03-27T21:34:07.559Z,2.50
2023-03-27T21:36:37.944Z,2.40
2023-03-27T21:39:06.494Z,2.40
2023-03-27T21:41:34.676Z,2.50
2023-03-27T21:44:03.058Z,2.50
2023-03-27T21:46:32.654Z,2.50
2023-03-27T21:49:00.900Z,2.60
2023-03-27T21:51:28.805Z,2.60
2023-03-27T21:53:57.004Z,2.60
2023-03-27T21:56:25.277Z,2.60
2023-03-27T21:58:53.483Z,2.50
2023-03-27T22:01:21.587Z,2.50
2023-03-27T22:03:50.973Z,2.50
2023-03-27T22:06:19.350Z,2.50
2023-03-27T22:08:47.750Z,2.50
2023-03-27T22:11:16.088Z,2.40
2023-03-27T22:13:45.070Z,2.40
2023-03-27T22:16:15.749Z,2.40
2023-03-27T22:18:44.620Z,2.40
2023-03-27T22:21:16.160Z,2.40
2023-03-27T22:23:44.543Z,2.30
2023-03-27T22:26:13.341Z,2.30
2023-03-27T22:28:41.505Z,2.20
2023-03-27T22:31:10.011Z,2.20
2023-03-27T22:33:38.345Z,2.20
2023-03-27T22:36:09.797Z,2.20
2023-03-27T22:38:40.353Z,2.20
2023-03-27T22:41:10.725Z,2.20
2023-03-27T22:43:39.460Z,2.30
2023-03-27T22:46:09.517Z,2.20
2023-03-27T22:48:37.795Z,2.30
2023-03-27T22:51:06.813Z,2.20
2023-03-27T22:53:35.436Z,2.30
2023-03-27T22:56:06.452Z,2.20
2023-03-27T22:58:35.241Z,2.20
2023-03-27T23:01:05.840Z,2.20
2023-03-27T23:03:34.611Z,2.20
2023-03-27T23:06:02.971Z,2.10
2023-03-27T23:08:31.858Z,2.10
2023-03-27T23:11:02.140Z,2.10
2023-03-27T23:13:34.725Z,2.10
2023-03-27T23:16:03.172Z,2.10
2023-03-27T23:18:31.482Z,2.10
2023-03-27T23:21:01.903Z,2.00
2023-03-27T23:23:32.150Z,2.10
2023-03-27T23:26:00.962Z,2.10
2023-03-27T23:28:34.589Z,2.00
2023-03-27T23:31:04.655Z,2.00
2023-03-27T23:33:36.474Z,2.00
2023-03-27T23:36:07.639Z,2.00
2023-03-27T23:38:37.398Z,2.00
2023-03-27T23:41:07.597Z,1.90
2023-03-27T23:43:37.524Z,1.90
2023-03-27T23:46:08.670Z,1.90
2023-03-27T23:48:37.846Z,1.90
2023-03-27T23:51:07.183Z,1.90
2023-03-27T23:53:36.253Z,1.90
2023-03-27T23:56:05.011Z,1.90
2023-03-27T23:58:37.932Z,1.90
